createdAt,value
2023-05-09T00:01:46.781Z,15.32
2023-05-09T00:04:50.093Z,15.29
2023-05-09T00:07:52.134Z,15.29
2023-05-09T00:10:53.925Z,15.29
2023-05-09T00:13:55.532Z,15.28
2023-05-09T00:16:59.254Z,15.32
2023-05-09T00:20:10.682Z,15.38
2023-05-09T00:23:12.361Z,15.42
2023-05-09T00:26:14.151Z,15.42
2023-05-09T00:29:18.308Z,15.39
2023-05-09T00:32:20.539Z,15.39
2023-05-09T00:35:24.101Z,15.38
2023-05-09T00:38:26.114Z,15.33
2023-05-09T00:41:28.155Z,15.20
2023-05-09T00:44:30.042Z,15.19
2023-05-09T00:47:32.139Z,15.22
2023-05-09T00:50:36.270Z,15.19
2023-05-09T00:53:38.685Z,15.31
2023-05-09T00:56:41.033Z,15.37
2023-05-09T00:59:42.926Z,15.35
2023-05-09T01:02:48.248Z,15.30
2023-05-09T01:05:58.339Z,15.15
2023-05-09T01:09:05.983Z,15.08
2023-05-09T01:12:16.477Z,15.20
2023-05-09T01:15:25.161Z,15.10
2023-05-09T01:18:33.382Z,15.24
2023-05-09T01:21:43.419Z,15.26
2023-05-09T01:25:08.158Z,15.27
2023-05-09T01:28:14.424Z,15.24
2023-05-09T01:31:18.866Z,15.32
2023-05-09T01:34:25.632Z,15.35
2023-05-09T01:37:31.831Z,15.46
2023-05-09T01:40:35.894Z,15.49
2023-05-09T01:43:39.524Z,15.39
2023-05-09T01:46:44.241Z,15.35
2023-05-09T01:49:48.028Z,15.33
2023-05-09T01:52:54.925Z,15.37
2023-05-09T01:55:58.279Z,15.43
2023-05-09T01:59:02.433Z,15.42
2023-05-09T02:02:07.637Z,15.27
2023-05-09T02:05:12.052Z,15.19
2023-05-09T02:08:15.110Z,15.24
2023-05-09T02:11:17.093Z,15.19
2023-05-09T02:14:18.986Z,15.21
2023-05-09T02:17:22.132Z,15.31
2023-05-09T02:20:24.005Z,15.32
2023-05-09T02:23:26.001Z,15.34
2023-05-09T02:26:28.943Z,15.29
2023-05-09T02:29:40.243Z,15.27
2023-05-09T02:32:45.627Z,15.15
2023-05-09T02:35:48.749Z,15.02
2023-05-09T02:38:50.858Z,14.96
2023-05-09T02:41:52.710Z,14.94
2023-05-09T02:44:55.399Z,14.95
2023-05-09T02:47:59.285Z,14.77
2023-05-09T02:51:01.390Z,14.51
2023-05-09T02:54:03.652Z,14.31
2023-05-09T02:57:05.860Z,14.16
2023-05-09T03:00:12.034Z,13.99
2023-05-09T03:03:17.916Z,14.01
2023-05-09T03:06:20.231Z,13.82
2023-05-09T03:09:22.067Z,13.76
2023-05-09T03:12:24.157Z,13.68
2023-05-09T03:15:28.299Z,13.62
2023-05-09T03:18:32.126Z,13.64
2023-05-09T03:21:34.296Z,13.59
2023-05-09T03:24:36.433Z,13.49
2023-05-09T03:27:38.189Z,13.44
2023-05-09T03:30:43.037Z,13.41
2023-05-09T03:33:49.428Z,13.28
2023-05-09T03:36:51.497Z,13.15
2023-05-09T03:39:53.316Z,13.21
2023-05-09T03:42:55.138Z,13.20
2023-05-09T03:45:56.826Z,13.31
2023-05-09T03:49:02.410Z,13.29
2023-05-09T03:52:05.624Z,13.47
2023-05-09T03:55:09.443Z,13.29
2023-05-09T03:58:12.419Z,13.24
2023-05-09T04:01:17.007Z,13.30
2023-05-09T04:04:21.127Z,13.47
2023-05-09T04:07:23.063Z,13.51
2023-05-09T04:10:25.612Z,13.55
2023-05-09T04:13:30.030Z,13.77
2023-05-09T04:16:34.081Z,13.80
2023-05-09T04:19:37.608Z,13.86
2023-05-09T04:22:39.341Z,13.85
2023-05-09T04:25:41.156Z,13.92
2023-05-09T04:28:45.912Z,13.97
2023-05-09T04:31:50.217Z,14.07
2023-05-09T04:34:54.731Z,14.21
2023-05-09T04:38:00.797Z,14.16
2023-05-09T04:41:02.986Z,14.26
2023-05-09T04:44:05.374Z,14.42
2023-05-09T04:47:07.450Z,14.44
2023-05-09T04:50:11.797Z,14.46
2023-05-09T04:53:13.512Z,14.53
2023-05-09T04:56:16.527Z,14.61
2023-05-09T04:59:20.683Z,14.72
2023-05-09T05:02:22.730Z,14.75
2023-05-09T05:05:28.024Z,14.86
2023-05-09T05:08:30.024Z,14.94
2023-05-09T05:11:31.926Z,15.06
2023-05-09T05:14:34.297Z,15.19
2023-05-09T05:17:39.576Z,15.18
2023-05-09T05:20:44.637Z,15.19
2023-05-09T05:23:46.612Z,15.26
2023-05-09T05:26:49.869Z,15.52
2023-05-09T05:29:51.751Z,15.48
2023-05-09T05:32:53.636Z,15.57
2023-05-09T05:35:57.967Z,15.56
2023-05-09T05:38:59.862Z,15.69
2023-05-09T05:42:01.950Z,15.88
2023-05-09T05:45:06.992Z,15.91
2023-05-09T05:48:13.403Z,15.99
2023-05-09T05:51:16.620Z,16.05
2023-05-09T05:54:19.109Z,16.12
2023-05-09T05:57:21.888Z,16.27
2023-05-09T06:00:24.002Z,16.24
2023-05-09T06:03:33.163Z,16.41
2023-05-09T06:06:40.579Z,16.46
2023-05-09T06:09:42.389Z,16.32
2023-05-09T06:12:45.071Z,16.41
2023-05-09T06:15:47.237Z,16.40
2023-05-09T06:18:49.084Z,16.48
2023-05-09T06:21:52.744Z,16.37
2023-05-09T06:24:54.679Z,16.64
2023-05-09T06:27:56.797Z,16.75
2023-05-09T06:30:59.048Z,16.88
2023-05-09T06:34:01.004Z,16.77
2023-05-09T06:37:04.296Z,16.58
2023-05-09T06:40:07.490Z,16.56
2023-05-09T06:43:09.482Z,16.58
2023-05-09T06:46:11.277Z,16.69
2023-05-09T06:49:14.286Z,16.82
2023-05-09T06:52:17.407Z,16.86
2023-05-09T06:55:19.271Z,16.98
2023-05-09T06:58:21.115Z,16.84
2023-05-09T07:01:23.053Z,16.84
2023-05-09T07:04:25.104Z,17.10
2023-05-09T07:07:28.302Z,17.30
2023-05-09T07:10:30.304Z,17.43
2023-05-09T07:13:31.950Z,17.29
2023-05-09T07:16:36.644Z,17.27
2023-05-09T07:19:39.270Z,16.98
2023-05-09T07:22:42.405Z,17.01
2023-05-09T07:25:45.200Z,17.11
2023-05-09T07:28:47.242Z,17.24
2023-05-09T07:31:49.214Z,17.29
2023-05-09T07:34:50.949Z,17.55
2023-05-09T07:37:54.329Z,17.45
2023-05-09T07:40:56.288Z,17.23
2023-05-09T07:43:58.283Z,17.21
2023-05-09T07:47:01.498Z,17.27
2023-05-09T07:50:03.424Z,17.15
2023-05-09T07:53:07.026Z,17.20
2023-05-09T07:56:08.755Z,17.32
2023-05-09T07:59:10.650Z,17.35
2023-05-09T08:02:12.488Z,17.73
2023-05-09T08:05:14.593Z,17.76
2023-05-09T08:08:17.704Z,17.60
2023-05-09T08:11:19.475Z,17.49
2023-05-09T08:14:21.280Z,17.45
2023-05-09T08:17:23.158Z,17.49
2023-05-09T08:20:25.880Z,17.55
2023-05-09T08:23:30.313Z,17.65
2023-05-09T08:26:32.207Z,17.58
2023-05-09T08:29:33.916Z,18.07
2023-05-09T08:32:36.334Z,18.59
2023-05-09T08:35:38.204Z,18.94
2023-05-09T08:38:41.411Z,19.03
2023-05-09T08:41:43.646Z,19.33
2023-05-09T08:44:45.543Z,19.22
2023-05-09T08:47:47.556Z,19.13
2023-05-09T08:50:49.822Z,18.64
2023-05-09T08:53:54.578Z,18.77
2023-05-09T08:56:57.905Z,19.41
2023-05-09T09:00:01.223Z,19.51
2023-05-09T09:03:04.126Z,19.54
2023-05-09T09:06:08.412Z,19.56
2023-05-09T09:09:12.938Z,19.85
2023-05-09T09:12:16.632Z,19.82
2023-05-09T09:15:22.150Z,20.10
2023-05-09T09:18:30.221Z,19.85
2023-05-09T09:21:33.151Z,19.96
2023-05-09T09:24:36.474Z,19.87
2023-05-09T09:27:38.451Z,19.74
2023-05-09T09:30:44.504Z,19.39
2023-05-09T09:33:46.436Z,19.49
2023-05-09T09:36:51.515Z,19.88
2023-05-09T09:39:56.179Z,19.30
2023-05-09T09:42:58.166Z,19.26
2023-05-09T09:46:04.107Z,18.98
2023-05-09T09:49:05.986Z,19.02
2023-05-09T09:52:07.803Z,19.35
2023-05-09T09:55:11.189Z,20.04
2023-05-09T09:58:16.995Z,19.89
2023-05-09T10:01:20.846Z,20.32
2023-05-09T10:04:23.345Z,20.02
2023-05-09T10:07:25.497Z,20.19
2023-05-09T10:10:32.588Z,20.69
2023-05-09T10:13:36.359Z,19.95
2023-05-09T10:16:43.935Z,20.49
2023-05-09T10:19:49.233Z,20.27
2023-05-09T10:22:57.088Z,20.57
2023-05-09T10:26:10.311Z,21.56
2023-05-09T10:29:13.558Z,21.24
2023-05-09T10:32:23.235Z,20.97
2023-05-09T10:35:32.371Z,21.28
2023-05-09T10:38:35.978Z,20.77
2023-05-09T10:41:40.253Z,20.44
2023-05-09T10:44:42.470Z,20.81
2023-05-09T10:47:45.371Z,21.21
2023-05-09T10:50:47.827Z,20.85
2023-05-09T10:53:51.130Z,20.80
2023-05-09T10:56:54.492Z,20.99
2023-05-09T10:59:57.566Z,21.11
2023-05-09T11:03:06.787Z,21.50
2023-05-09T11:06:08.967Z,21.54
2023-05-09T11:09:38.689Z,22.22
2023-05-09T11:12:57.697Z,22.12
2023-05-09T11:16:09.754Z,21.75
2023-05-09T11:19:11.711Z,21.54
2023-05-09T11:22:15.077Z,21.85
2023-05-09T11:25:17.977Z,21.58
2023-05-09T11:28:29.008Z,22.19
2023-05-09T11:31:31.030Z,22.18
2023-05-09T11:34:33.656Z,22.86
2023-05-09T11:37:39.730Z,22.68
2023-05-09T11:40:42.073Z,21.79
2023-05-09T11:43:45.658Z,21.81
2023-05-09T11:46:50.957Z,21.02
2023-05-09T11:49:52.927Z,20.64
2023-05-09T11:52:55.164Z,20.50
2023-05-09T11:55:57.328Z,20.37
2023-05-09T11:59:00.828Z,20.41
2023-05-09T12:02:04.085Z,20.79
2023-05-09T12:05:11.376Z,20.60
2023-05-09T12:08:13.907Z,20.92
2023-05-09T12:11:15.896Z,20.96
2023-05-09T12:14:28.572Z,20.80
2023-05-09T12:17:30.570Z,21.00
2023-05-09T12:20:47.611Z,20.96
2023-05-09T12:23:51.809Z,20.84
2023-05-09T12:26:57.350Z,20.90
2023-05-09T12:30:01.917Z,21.13
2023-05-09T12:33:04.361Z,21.11
2023-05-09T12:36:08.980Z,21.06
2023-05-09T12:39:10.869Z,21.25
2023-05-09T12:42:13.714Z,21.22
2023-05-09T12:45:17.197Z,21.38
2023-05-09T12:48:23.033Z,22.26
2023-05-09T12:51:24.847Z,22.14
2023-05-09T12:54:30.032Z,22.77
2023-05-09T12:57:31.997Z,22.25
2023-05-09T13:00:43.532Z,21.94
2023-05-09T13:03:51.037Z,22.10
2023-05-09T13:06:55.704Z,22.17
2023-05-09T13:09:57.572Z,22.19
2023-05-09T13:12:59.475Z,21.86
2023-05-09T13:16:04.223Z,22.12
2023-05-09T13:19:06.563Z,22.38
2023-05-09T13:22:09.868Z,22.42
2023-05-09T13:25:16.822Z,22.38
2023-05-09T13:28:18.799Z,22.63
2023-05-09T13:31:22.816Z,22.36
2023-05-09T13:34:24.714Z,22.36
2023-05-09T13:37:29.069Z,22.30
2023-05-09T13:40:30.792Z,22.28
2023-05-09T13:43:32.713Z,21.73
2023-05-09T13:46:37.331Z,21.53
2023-05-09T13:49:39.433Z,21.25
2023-05-09T13:52:41.238Z,21.39
2023-05-09T13:55:43.366Z,21.51
2023-05-09T13:58:47.116Z,21.65
2023-05-09T14:01:50.370Z,21.62
2023-05-09T14:04:52.216Z,22.20
2023-05-09T14:07:54.701Z,23.00
2023-05-09T14:10:56.552Z,22.47
2023-05-09T14:13:58.353Z,22.65
2023-05-09T14:17:01.950Z,23.02
2023-05-09T14:20:04.387Z,22.81
2023-05-09T14:23:06.163Z,22.11
2023-05-09T14:26:08.619Z,22.56
2023-05-09T14:29:10.909Z,23.13
2023-05-09T14:32:14.545Z,22.67
2023-05-09T14:35:16.959Z,22.75
2023-05-09T14:38:19.168Z,22.23
2023-05-09T14:41:22.185Z,21.88
2023-05-09T14:44:25.134Z,21.76
2023-05-09T14:47:28.570Z,21.52
2023-05-09T14:50:30.989Z,21.38
2023-05-09T14:53:35.475Z,21.18
2023-05-09T14:56:37.444Z,21.22
2023-05-09T14:59:39.145Z,21.41
2023-05-09T15:02:42.576Z,21.34
2023-05-09T15:05:44.831Z,21.37
2023-05-09T15:08:46.880Z,21.39
2023-05-09T15:11:49.719Z,21.48
2023-05-09T15:14:53.836Z,21.46
2023-05-09T15:17:57.796Z,21.48
2023-05-09T15:20:59.736Z,21.23
2023-05-09T15:24:02.417Z,21.11
2023-05-09T15:27:04.486Z,21.04
2023-05-09T15:30:07.812Z,20.78
2023-05-09T15:33:11.384Z,20.55
2023-05-09T15:36:13.479Z,20.78
2023-05-09T15:39:15.461Z,20.75
2023-05-09T15:42:19.030Z,20.67
2023-05-09T15:45:20.953Z,20.53
2023-05-09T15:48:24.881Z,20.57
2023-05-09T15:51:29.425Z,20.66
2023-05-09T15:54:31.785Z,20.90
2023-05-09T15:57:34.013Z,20.89
2023-05-09T16:00:36.062Z,20.80
2023-05-09T16:03:39.664Z,20.69
2023-05-09T16:06:41.978Z,20.75
2023-05-09T16:09:44.658Z,20.61
2023-05-09T16:12:46.427Z,20.44
2023-05-09T16:15:49.921Z,20.17
2023-05-09T16:18:53.494Z,19.99
2023-05-09T16:21:55.226Z,19.84
2023-05-09T16:24:57.057Z,19.96
2023-05-09T16:27:59.023Z,19.96
2023-05-09T16:31:04.833Z,19.95
2023-05-09T16:34:08.220Z,19.84
2023-05-09T16:37:10.265Z,19.84
2023-05-09T16:40:13.578Z,19.85
2023-05-09T16:43:16.344Z,19.71
2023-05-09T16:46:18.292Z,19.26
2023-05-09T16:49:21.589Z,19.24
2023-05-09T16:52:24.038Z,19.35
2023-05-09T16:55:26.062Z,19.35
2023-05-09T16:58:28.051Z,19.28
2023-05-09T17:01:30.230Z,19.18
2023-05-09T17:04:35.309Z,19.09
2023-05-09T17:07:39.499Z,19.09
2023-05-09T17:10:42.170Z,18.77
2023-05-09T17:13:44.277Z,18.31
2023-05-09T17:16:46.139Z,18.00
2023-05-09T17:19:49.757Z,18.17
2023-05-09T17:22:51.663Z,17.97
2023-05-09T17:25:53.532Z,17.96
2023-05-09T17:28:56.637Z,17.94
2023-05-09T17:35:25.779Z,17.65
2023-05-09T17:38:27.517Z,17.70
2023-05-09T17:41:29.440Z,17.69
2023-05-09T17:44:31.356Z,17.74
2023-05-09T17:47:33.458Z,17.93
2023-05-09T17:50:39.088Z,17.79
2023-05-09T17:53:40.767Z,17.81
2023-05-09T17:56:44.294Z,17.73
2023-05-09T17:59:47.860Z,17.81
2023-05-09T18:02:51.039Z,17.79
2023-05-09T18:05:54.357Z,17.79
2023-05-09T18:08:56.162Z,17.74
2023-05-09T18:11:59.071Z,17.74
2023-05-09T18:15:00.945Z,17.60
2023-05-09T18:18:03.321Z,17.53
2023-05-09T18:21:07.985Z,17.43
2023-05-09T18:24:10.102Z,17.30
2023-05-09T18:27:11.946Z,17.20
2023-05-09T18:30:15.107Z,17.13
2023-05-09T18:33:17.042Z,17.21
2023-05-09T18:36:20.638Z,17.13
2023-05-09T18:39:22.494Z,16.76
2023-05-09T18:42:24.213Z,16.33
2023-05-09T18:45:25.983Z,15.47
2023-05-09T18:48:31.188Z,15.39
2023-05-09T18:51:35.801Z,15.45
2023-05-09T18:54:38.177Z,15.39
2023-05-09T18:57:40.601Z,15.38
2023-05-09T19:00:42.932Z,15.22
2023-05-09T19:03:54.020Z,15.35
2023-05-09T19:06:59.204Z,15.34
2023-05-09T19:10:01.662Z,15.23
2023-05-09T19:13:04.601Z,15.24
2023-05-09T19:16:07.676Z,15.27
2023-05-09T19:19:09.770Z,15.34
2023-05-09T19:22:13.491Z,15.35
2023-05-09T19:25:15.558Z,15.33
2023-05-09T19:28:18.898Z,15.37
2023-05-09T19:31:21.456Z,15.36
2023-05-09T19:34:24.358Z,15.33
2023-05-09T19:37:28.168Z,15.42
2023-05-09T19:40:30.380Z,15.49
2023-05-09T19:43:35.744Z,15.52
2023-05-09T19:46:42.720Z,15.51
2023-05-09T19:49:45.428Z,15.50
2023-05-09T19:52:51.764Z,15.51
2023-05-09T19:55:53.806Z,15.56
2023-05-09T19:58:55.595Z,15.58
2023-05-09T20:01:57.969Z,15.58
2023-05-09T20:05:00.464Z,15.63
2023-05-09T20:08:04.213Z,15.54
2023-05-09T20:11:06.616Z,15.63
2023-05-09T20:14:08.429Z,15.66
2023-05-09T20:17:10.813Z,15.63
2023-05-09T20:20:13.521Z,15.64
2023-05-09T20:23:17.398Z,15.67
2023-05-09T20:26:19.421Z,15.62
2023-05-09T20:29:21.418Z,15.65
2023-05-09T20:35:49.817Z,15.73
2023-05-09T20:38:53.460Z,15.72
2023-05-09T20:42:02.625Z,15.73
2023-05-09T20:45:05.465Z,15.63
2023-05-09T20:48:07.813Z,15.55
2023-05-09T20:51:09.930Z,15.59
2023-05-09T20:54:13.519Z,15.51
2023-05-09T20:57:15.696Z,15.49
2023-05-09T21:00:18.207Z,15.48
2023-05-09T21:03:20.244Z,15.43
2023-05-09T21:06:22.278Z,15.37
2023-05-09T21:09:28.685Z,15.36
2023-05-09T21:12:30.766Z,15.39
2023-05-09T21:15:32.806Z,15.30
2023-05-09T21:18:34.717Z,15.33
2023-05-09T21:21:36.660Z,15.30
2023-05-09T21:24:40.133Z,15.26
2023-05-09T21:27:42.021Z,15.23
2023-05-09T21:30:44.207Z,15.34
2023-05-09T21:33:46.029Z,15.26
2023-05-09T21:36:47.934Z,15.23
2023-05-09T21:39:51.090Z,15.34
2023-05-09T21:42:52.792Z,15.32
2023-05-09T21:45:55.144Z,15.22
2023-05-09T21:48:56.751Z,15.25
2023-05-09T21:51:58.840Z,15.19
2023-05-09T21:55:05.481Z,15.25
2023-05-09T21:58:07.412Z,15.19
2023-05-09T22:01:09.193Z,15.04
2023-05-09T22:04:11.746Z,15.06
2023-05-09T22:07:13.442Z,15.07
2023-05-09T22:10:17.293Z,15.03
2023-05-09T22:13:19.504Z,15.01
2023-05-09T22:16:22.461Z,14.95
2023-05-09T22:19:25.072Z,14.98
2023-05-09T22:22:29.788Z,14.97
2023-05-09T22:25:32.910Z,14.90
2023-05-09T22:28:34.666Z,14.75
2023-05-09T22:31:36.617Z,14.89
2023-05-09T22:34:38.562Z,14.78
2023-05-09T22:37:43.881Z,14.73
2023-05-09T22:40:47.589Z,14.71
2023-05-09T22:43:49.484Z,14.77
2023-05-09T22:46:51.425Z,14.72
2023-05-09T22:49:53.262Z,14.75
2023-05-09T22:52:55.069Z,14.69
2023-05-09T22:55:58.330Z,14.79
2023-05-09T22:59:02.653Z,14.73
2023-05-09T23:02:04.806Z,14.69
2023-05-09T23:05:08.752Z,14.68
2023-05-09T23:08:10.709Z,14.58
2023-05-09T23:11:13.989Z,14.53
2023-05-09T23:14:15.778Z,14.47
2023-05-09T23:17:17.650Z,14.48
2023-05-09T23:20:19.637Z,14.27
2023-05-09T23:23:21.691Z,14.18
2023-05-09T23:26:24.966Z,14.29
2023-05-09T23:29:26.754Z,14.11
2023-05-09T23:32:31.535Z,14.13
2023-05-09T23:35:33.340Z,14.07
2023-05-09T23:38:35.399Z,14.08
2023-05-09T23:41:38.890Z,13.92
2023-05-09T23:44:40.534Z,13.90
2023-05-09T23:47:42.279Z,13.88
2023-05-09T23:50:44.391Z,13.82
2023-05-09T23:53:46.108Z,13.82
2023-05-09T23:56:49.609Z,13.84
2023-05-09T23:59:51.538Z,13.81
